createdAt,value
2017-04-17T00:00:55.936Z,93.00
2017-04-17T00:01:55.157Z,93.10
2017-04-17T00:02:54.372Z,93.20
2017-04-17T00:03:53.579Z,93.10
2017-04-17T00:04:52.780Z,93.10
2017-04-17T00:05:51.972Z,93.10
2017-04-17T00:06:51.157Z,93.10
2017-04-17T00:07:50.355Z,93.10
2017-04-17T00:08:49.537Z,93.10
2017-04-17T00:09:48.717Z,93.20
2017-04-17T00:10:47.894Z,93.20
2017-04-17T00:11:47.082Z,93.20
2017-04-17T00:12:47.004Z,93.30
2017-04-17T00:13:46.216Z,93.30
2017-04-17T00:14:45.401Z,93.30
2017-04-17T00:15:44.576Z,93.30
2017-04-17T00:16:43.753Z,93.30
2017-04-17T00:17:42.981Z,93.30
2017-04-17T00:18:42.212Z,93.30
2017-04-17T00:19:42.163Z,93.30
2017-04-17T00:20:41.355Z,93.40
2017-04-17T00:21:40.537Z,93.30
2017-04-17T00:22:39.716Z,93.40
2017-04-17T00:23:38.915Z,93.30
2017-04-17T00:24:38.147Z,93.30
2017-04-17T00:25:37.368Z,93.30
2017-04-17T00:26:36.585Z,93.30
2017-04-17T00:27:35.796Z,93.40
2017-04-17T00:28:34.980Z,93.40
2017-04-17T00:29:34.252Z,93.30
2017-04-17T00:30:33.431Z,93.40
2017-04-17T00:31:32.641Z,93.50
2017-04-17T00:32:32.581Z,93.50
2017-04-17T00:33:31.758Z,93.50
2017-04-17T00:34:30.944Z,93.50
2017-04-17T00:35:30.124Z,93.50
2017-04-17T00:36:29.568Z,93.50
2017-04-17T00:37:28.799Z,93.60
2017-04-17T00:38:27.980Z,93.50
2017-04-17T00:39:27.159Z,93.60
2017-04-17T00:40:26.369Z,94.10
2017-04-17T00:41:25.548Z,93.70
2017-04-17T00:42:24.725Z,93.80
2017-04-17T00:43:23.936Z,93.80
2017-04-17T00:44:23.116Z,93.90
2017-04-17T00:45:22.320Z,93.70
2017-04-17T00:46:21.488Z,93.60
2017-04-17T00:47:20.664Z,93.70
2017-04-17T00:48:19.880Z,94.00
2017-04-17T00:49:19.096Z,94.00
2017-04-17T00:50:18.271Z,94.00
2017-04-17T00:51:17.457Z,94.10
2017-04-17T00:52:16.649Z,94.10
2017-04-17T00:53:15.824Z,94.10
2017-04-17T00:54:15.009Z,94.20
2017-04-17T00:55:14.209Z,94.20
2017-04-17T00:56:13.389Z,94.30
2017-04-17T00:57:12.567Z,94.20
2017-04-17T00:58:11.762Z,94.30
2017-04-17T00:59:10.945Z,94.40
2017-04-17T01:00:10.139Z,94.50
2017-04-17T01:01:09.428Z,94.50
2017-04-17T01:02:08.661Z,94.50
2017-04-17T01:03:07.861Z,94.60
2017-04-17T01:04:07.048Z,94.60
2017-04-17T01:05:06.219Z,94.70
2017-04-17T01:06:05.427Z,94.70
2017-04-17T01:07:04.690Z,94.80
2017-04-17T01:08:03.892Z,94.80
2017-04-17T01:09:03.941Z,94.80
2017-04-17T01:10:03.137Z,94.80
2017-04-17T01:11:02.364Z,94.90
2017-04-17T01:12:01.530Z,94.90
2017-04-17T01:13:00.983Z,94.90
2017-04-17T01:14:00.170Z,95.00
2017-04-17T01:14:59.349Z,94.90
2017-04-17T01:15:58.543Z,94.80
2017-04-17T01:16:57.739Z,94.80
2017-04-17T01:17:56.909Z,95.00
2017-04-17T01:18:56.124Z,94.60
2017-04-17T01:19:55.306Z,94.60
2017-04-17T01:20:54.481Z,94.70
2017-04-17T01:21:53.700Z,94.80
2017-04-17T01:22:52.868Z,95.30
2017-04-17T01:23:52.781Z,94.90
2017-04-17T01:24:52.782Z,95.00
2017-04-17T01:25:52.693Z,95.10
2017-04-17T01:26:51.846Z,95.20
2017-04-17T01:27:51.042Z,95.30
2017-04-17T01:28:50.193Z,95.40
2017-04-17T01:29:49.355Z,95.40
2017-04-17T01:30:48.556Z,95.50
2017-04-17T01:31:47.769Z,95.60
2017-04-17T01:32:47.673Z,95.70
2017-04-17T01:33:47.581Z,95.80
2017-04-17T01:34:47.529Z,95.80
2017-04-17T01:35:46.696Z,95.70
2017-04-17T01:36:45.885Z,95.70
2017-04-17T01:37:45.063Z,95.70
2017-04-17T01:38:44.253Z,95.80
2017-04-17T01:39:43.415Z,95.80
2017-04-17T01:40:42.568Z,95.70
2017-04-17T01:41:41.704Z,95.40
2017-04-17T01:42:40.897Z,95.00
2017-04-17T01:43:40.053Z,95.00
2017-04-17T01:44:39.244Z,95.10
2017-04-17T01:45:38.435Z,95.30
2017-04-17T01:46:37.585Z,95.20
2017-04-17T01:47:36.761Z,95.20
2017-04-17T01:48:36.177Z,95.30
2017-04-17T01:49:36.082Z,95.40
2017-04-17T01:50:35.260Z,95.50
2017-04-17T01:51:34.418Z,95.70
2017-04-17T01:52:33.623Z,95.60
2017-04-17T01:53:32.777Z,95.70
2017-04-17T01:54:31.972Z,95.70
2017-04-17T01:55:31.120Z,95.80
2017-04-17T01:56:30.267Z,95.90
2017-04-17T01:57:29.428Z,96.00
2017-04-17T01:58:28.580Z,96.00
2017-04-17T01:59:27.741Z,96.00
2017-04-17T02:00:26.937Z,96.00
2017-04-17T02:01:26.088Z,96.10
2017-04-17T02:02:25.240Z,96.10
2017-04-17T02:03:24.408Z,96.00
2017-04-17T02:04:23.856Z,96.10
2017-04-17T02:05:23.064Z,96.40
2017-04-17T02:06:22.252Z,96.10
2017-04-17T02:07:22.137Z,96.20
2017-04-17T02:08:21.338Z,96.50
2017-04-17T02:09:20.535Z,96.60
2017-04-17T02:10:19.688Z,96.60
2017-04-17T02:11:18.884Z,96.60
2017-04-17T02:12:18.433Z,96.60
2017-04-17T02:13:17.618Z,96.60
2017-04-17T02:14:16.821Z,96.60
2017-04-17T02:15:15.996Z,96.70
2017-04-17T02:16:15.200Z,96.60
2017-04-17T02:17:14.390Z,96.60
2017-04-17T02:18:13.601Z,96.60
2017-04-17T02:19:12.789Z,96.60
2017-04-17T02:20:11.951Z,96.60
2017-04-17T02:21:11.108Z,96.70
2017-04-17T02:22:10.268Z,96.70
2017-04-17T02:23:09.436Z,96.70
2017-04-17T02:24:08.612Z,96.70
2017-04-17T02:25:07.808Z,96.60
2017-04-17T02:26:06.999Z,96.50
2017-04-17T02:27:06.171Z,96.60
2017-04-17T02:28:05.340Z,96.60
2017-04-17T02:29:04.505Z,96.60
2017-04-17T02:30:03.704Z,96.60
2017-04-17T02:31:03.138Z,96.70
2017-04-17T02:32:03.024Z,96.70
2017-04-17T02:33:02.185Z,96.70
2017-04-17T02:34:01.348Z,96.80
2017-04-17T02:35:00.500Z,96.80
2017-04-17T02:35:59.681Z,96.80
2017-04-17T02:36:59.568Z,96.80
2017-04-17T02:37:58.725Z,96.80
2017-04-17T02:38:57.918Z,96.70
2017-04-17T02:39:57.825Z,96.70
2017-04-17T02:40:56.973Z,96.60
2017-04-17T02:41:56.380Z,96.60
2017-04-17T02:42:55.524Z,96.60
2017-04-17T02:43:54.680Z,97.00
2017-04-17T02:44:53.840Z,96.70
2017-04-17T02:45:52.992Z,96.70
2017-04-17T02:46:52.144Z,96.80
2017-04-17T02:48:50.792Z,96.90
2017-04-17T02:49:49.944Z,96.90
2017-04-17T02:50:49.108Z,96.90
2017-04-17T02:51:48.284Z,96.90
2017-04-17T02:52:48.374Z,97.00
2017-04-17T02:53:47.564Z,97.10
2017-04-17T02:54:46.734Z,97.10
2017-04-17T02:55:45.896Z,97.10
2017-04-17T02:56:45.049Z,97.20
2017-04-17T02:57:44.213Z,97.20
2017-04-17T02:58:43.380Z,97.20
2017-04-17T02:59:42.563Z,97.20
2017-04-17T03:00:41.715Z,97.10
2017-04-17T03:01:40.873Z,97.10
2017-04-17T03:02:40.056Z,97.10
2017-04-17T03:03:39.213Z,97.50
2017-04-17T03:04:39.156Z,97.20
2017-04-17T03:05:38.369Z,97.10
2017-04-17T03:06:37.516Z,97.10
2017-04-17T03:07:36.703Z,97.10
2017-04-17T03:08:35.884Z,97.00
2017-04-17T03:09:35.041Z,96.60
2017-04-17T03:10:34.973Z,96.50
2017-04-17T03:11:34.174Z,96.40
2017-04-17T03:12:33.381Z,96.20
2017-04-17T03:13:32.609Z,96.40
2017-04-17T03:14:31.781Z,96.60
2017-04-17T03:15:30.960Z,96.70
2017-04-17T03:16:30.136Z,96.70
2017-04-17T03:17:29.639Z,97.20
2017-04-17T03:18:28.816Z,97.00
2017-04-17T03:19:28.019Z,96.90
2017-04-17T03:20:27.204Z,97.00
2017-04-17T03:21:26.372Z,97.10
2017-04-17T03:22:25.552Z,97.20
2017-04-17T03:23:24.762Z,97.20
2017-04-17T03:24:23.932Z,97.30
2017-04-17T03:25:23.109Z,97.30
2017-04-17T03:26:22.260Z,97.30
2017-04-17T03:27:21.461Z,97.40
2017-04-17T03:28:20.621Z,97.40
2017-04-17T03:29:20.545Z,97.30
2017-04-17T03:30:19.696Z,97.30
2017-04-17T03:31:18.875Z,97.40
2017-04-17T03:32:18.038Z,97.50
2017-04-17T03:33:17.216Z,97.70
2017-04-17T03:34:16.381Z,97.60
2017-04-17T03:35:15.568Z,97.70
2017-04-17T03:36:14.744Z,97.80
2017-04-17T03:37:13.904Z,97.90
2017-04-17T03:38:13.808Z,97.90
2017-04-17T03:39:12.968Z,97.90
2017-04-17T03:40:12.121Z,98.00
2017-04-17T03:41:11.324Z,98.00
2017-04-17T03:42:10.496Z,98.00
2017-04-17T03:43:09.653Z,97.90
2017-04-17T03:44:08.824Z,97.90
2017-04-17T03:45:08.044Z,97.60
2017-04-17T03:46:07.209Z,97.40
2017-04-17T03:47:06.399Z,97.50
2017-04-17T03:48:05.570Z,97.30
2017-04-17T03:49:05.485Z,97.30
2017-04-17T03:50:04.665Z,97.40
2017-04-17T03:51:04.526Z,97.60
2017-04-17T03:52:03.690Z,97.70
2017-04-17T03:53:03.168Z,97.60
2017-04-17T03:54:02.325Z,97.60
2017-04-17T03:55:01.473Z,97.80
2017-04-17T03:56:00.644Z,97.90
2017-04-17T03:56:59.813Z,97.90
2017-04-17T03:57:58.973Z,97.90
2017-04-17T03:58:58.168Z,98.10
2017-04-17T03:59:57.337Z,98.50
2017-04-17T04:00:56.848Z,98.70
2017-04-17T04:01:56.008Z,98.90
2017-04-17T04:02:55.173Z,99.10
2017-04-17T04:03:54.335Z,99.10
2017-04-17T04:04:53.522Z,99.10
2017-04-17T04:05:52.683Z,99.00
2017-04-17T04:06:51.832Z,99.00
2017-04-17T04:07:51.016Z,98.90
2017-04-17T04:08:50.167Z,98.70
2017-04-17T04:09:49.319Z,98.50
2017-04-17T04:10:48.821Z,98.30
2017-04-17T04:11:47.976Z,98.10
2017-04-17T04:12:47.128Z,97.90
2017-04-17T04:13:46.286Z,98.00
2017-04-17T04:14:45.449Z,98.20
2017-04-17T04:15:44.618Z,98.00
2017-04-17T04:16:43.812Z,97.90
2017-04-17T04:17:42.976Z,98.00
2017-04-17T04:18:42.140Z,98.00
2017-04-17T04:19:41.296Z,97.90
2017-04-17T04:20:40.464Z,97.70
2017-04-17T04:21:40.372Z,97.60
2017-04-17T04:22:39.560Z,97.50
2017-04-17T04:23:38.733Z,97.10
2017-04-17T04:24:37.897Z,97.30
2017-04-17T04:25:37.837Z,97.50
2017-04-17T04:26:37.014Z,97.70
2017-04-17T04:27:36.219Z,97.70
2017-04-17T04:28:35.740Z,97.50
2017-04-17T04:29:35.653Z,97.60
2017-04-17T04:30:34.855Z,97.50
2017-04-17T04:31:34.038Z,97.60
2017-04-17T04:32:33.568Z,97.70
2017-04-17T04:33:32.758Z,97.90
2017-04-17T04:34:32.177Z,97.70
2017-04-17T04:35:31.399Z,97.70
2017-04-17T04:36:30.576Z,97.60
2017-04-17T04:37:29.766Z,97.60
2017-04-17T04:38:28.997Z,97.60
2017-04-17T04:39:28.167Z,97.60
2017-04-17T04:40:27.367Z,97.70
2017-04-17T04:41:26.552Z,97.70
2017-04-17T04:42:25.752Z,97.60
2017-04-17T04:43:24.984Z,97.40
2017-04-17T04:44:24.173Z,97.50
2017-04-17T04:45:23.363Z,97.60
2017-04-17T04:46:22.824Z,97.50
2017-04-17T04:47:22.024Z,97.50
2017-04-17T04:48:21.203Z,97.60
2017-04-17T04:49:20.383Z,97.70
2017-04-17T04:50:19.584Z,97.80
2017-04-17T04:51:18.769Z,97.70
2017-04-17T04:52:18.044Z,97.50
2017-04-17T04:53:17.241Z,97.40
2017-04-17T04:54:16.413Z,97.30
2017-04-17T04:55:15.597Z,97.30
2017-04-17T04:56:14.853Z,97.70
2017-04-17T04:57:14.037Z,97.30
2017-04-17T04:58:13.252Z,97.40
2017-04-17T04:59:12.435Z,97.30
2017-04-17T05:00:12.376Z,97.30
2017-04-17T05:01:12.367Z,97.20
2017-04-17T05:02:11.546Z,97.30
2017-04-17T05:03:10.722Z,97.40
2017-04-17T05:04:09.938Z,97.50
2017-04-17T05:05:09.861Z,97.30
2017-04-17T05:06:09.132Z,97.80
2017-04-17T05:07:08.312Z,97.30
2017-04-17T05:08:07.484Z,97.20
2017-04-17T05:09:06.662Z,97.30
2017-04-17T05:10:05.868Z,97.40
2017-04-17T05:12:04.516Z,97.40
2017-04-17T05:13:03.701Z,97.40
2017-04-17T05:14:03.668Z,97.20
2017-04-17T05:15:02.845Z,97.20
2017-04-17T05:16:02.058Z,97.20
2017-04-17T05:17:01.234Z,97.30
2017-04-17T05:18:00.424Z,97.50
2017-04-17T05:18:59.625Z,97.40
2017-04-17T05:19:58.805Z,97.30
2017-04-17T05:20:57.984Z,97.30
2017-04-17T05:21:57.558Z,96.90
2017-04-17T05:22:57.472Z,97.10
2017-04-17T05:23:56.654Z,97.10
2017-04-17T05:24:55.843Z,97.00
2017-04-17T05:25:55.093Z,96.80
2017-04-17T05:26:54.329Z,96.90
2017-04-17T05:27:53.540Z,97.10
2017-04-17T05:28:52.708Z,96.80
2017-04-17T05:29:51.886Z,96.80
2017-04-17T05:30:51.066Z,96.90
2017-04-17T05:31:50.257Z,96.80
2017-04-17T05:32:49.436Z,96.90
2017-04-17T05:33:48.645Z,96.80
2017-04-17T05:34:47.905Z,96.60
2017-04-17T05:35:47.083Z,96.40
2017-04-17T05:36:46.261Z,96.60
2017-04-17T05:37:46.427Z,96.80
2017-04-17T05:38:46.393Z,96.90
2017-04-17T05:39:45.821Z,96.80
2017-04-17T05:40:44.993Z,96.80
2017-04-17T05:41:44.237Z,96.80
2017-04-17T05:42:44.162Z,96.70
2017-04-17T05:43:43.329Z,96.80
2017-04-17T05:44:42.501Z,96.80
2017-04-17T05:45:41.735Z,96.70
2017-04-17T05:46:40.924Z,96.70
2017-04-17T05:47:40.105Z,96.70
2017-04-17T05:48:39.273Z,96.70
2017-04-17T05:49:38.446Z,96.70
2017-04-17T05:50:37.627Z,97.00
2017-04-17T05:51:36.827Z,97.50
2017-04-17T05:52:36.012Z,97.30
2017-04-17T05:53:35.225Z,97.10
2017-04-17T05:54:34.405Z,96.90
2017-04-17T05:55:33.580Z,96.70
2017-04-17T05:56:32.761Z,96.80
2017-04-17T05:57:32.712Z,96.40
2017-04-17T05:58:31.880Z,96.20
2017-04-17T05:59:31.065Z,95.90
2017-04-17T06:00:30.284Z,96.10
2017-04-17T06:01:29.460Z,95.70
2017-04-17T06:02:28.632Z,95.70
2017-04-17T06:03:28.133Z,96.10
2017-04-17T06:04:27.341Z,96.10
2017-04-17T06:05:26.523Z,95.90
2017-04-17T06:06:25.692Z,96.00
2017-04-17T06:07:24.892Z,96.10
2017-04-17T06:08:24.072Z,96.00
2017-04-17T06:09:23.285Z,95.70
2017-04-17T06:10:22.461Z,95.50
2017-04-17T06:11:21.697Z,95.50
2017-04-17T06:12:20.863Z,95.60
2017-04-17T06:13:20.781Z,95.70
2017-04-17T06:14:20.690Z,96.10
2017-04-17T06:15:20.639Z,96.50
2017-04-17T06:16:19.861Z,96.40
2017-04-17T06:17:19.048Z,96.50
2017-04-17T06:18:18.231Z,96.60
2017-04-17T06:19:17.409Z,96.90
2017-04-17T06:20:16.587Z,96.50
2017-04-17T06:21:16.050Z,96.40
2017-04-17T06:22:15.235Z,95.80
2017-04-17T06:23:14.407Z,96.10
2017-04-17T06:24:13.589Z,96.10
2017-04-17T06:25:12.752Z,96.20
2017-04-17T06:26:11.961Z,95.70
2017-04-17T06:27:11.911Z,95.70
2017-04-17T06:28:11.063Z,95.40
2017-04-17T06:29:10.221Z,95.30
2017-04-17T06:30:09.376Z,95.20
2017-04-17T06:31:08.531Z,95.40
2017-04-17T06:32:07.695Z,95.30
2017-04-17T06:33:06.885Z,95.40
2017-04-17T06:34:06.042Z,95.40
2017-04-17T06:35:05.234Z,95.00
2017-04-17T06:36:04.403Z,95.60
2017-04-17T06:37:03.573Z,96.10
2017-04-17T06:38:02.736Z,95.20
2017-04-17T06:39:02.181Z,94.90
2017-04-17T06:40:01.331Z,95.60
2017-04-17T06:41:00.488Z,95.50
2017-04-17T06:42:00.380Z,95.50
2017-04-17T06:42:59.527Z,95.60
2017-04-17T06:43:58.682Z,96.60
2017-04-17T06:44:57.883Z,96.30
2017-04-17T06:45:57.060Z,96.00
2017-04-17T06:46:56.225Z,96.30
2017-04-17T06:47:55.392Z,96.00
2017-04-17T06:48:55.317Z,96.40
2017-04-17T06:49:55.246Z,96.50
2017-04-17T06:50:54.477Z,96.60
2017-04-17T06:51:53.636Z,96.10
2017-04-17T06:52:52.797Z,96.00
2017-04-17T06:53:52.693Z,96.00
2017-04-17T06:54:51.849Z,95.80
2017-04-17T06:55:51.001Z,95.80
2017-04-17T06:56:50.227Z,96.10
2017-04-17T06:57:50.120Z,96.00
2017-04-17T06:58:49.273Z,96.20
2017-04-17T06:59:48.424Z,96.20
2017-04-17T07:00:47.621Z,96.30
2017-04-17T07:01:46.777Z,96.30
2017-04-17T07:02:48.624Z,96.50
2017-04-17T07:03:47.784Z,96.40
2017-04-17T07:04:46.952Z,96.40
2017-04-17T07:05:46.865Z,96.20
2017-04-17T07:06:46.029Z,96.30
2017-04-17T07:07:45.212Z,96.40
2017-04-17T07:08:44.412Z,96.60
2017-04-17T07:09:43.572Z,97.00
2017-04-17T07:10:42.731Z,97.20
2017-04-17T07:11:41.892Z,97.30
2017-04-17T07:12:41.121Z,97.40
2017-04-17T07:13:40.264Z,97.50
2017-04-17T07:14:39.445Z,97.40
2017-04-17T07:15:38.600Z,97.40
2017-04-17T07:16:37.757Z,97.30
2017-04-17T07:17:36.909Z,97.30
2017-04-17T07:18:36.825Z,97.10
2017-04-17T07:19:35.989Z,97.30
2017-04-17T07:20:35.189Z,97.10
2017-04-17T07:21:35.085Z,97.10
2017-04-17T07:22:34.235Z,97.00
2017-04-17T07:23:33.397Z,97.10
2017-04-17T07:24:32.604Z,97.10
2017-04-17T07:25:31.768Z,97.30
2017-04-17T07:26:30.980Z,97.30
2017-04-17T07:27:30.136Z,97.40
2017-04-17T07:28:29.292Z,97.30
2017-04-17T07:29:28.441Z,97.20
2017-04-17T07:30:27.596Z,97.30
2017-04-17T07:31:26.752Z,97.20
2017-04-17T07:32:25.931Z,97.00
2017-04-17T07:33:25.080Z,97.10
2017-04-17T07:34:24.242Z,97.10
2017-04-17T07:35:23.393Z,97.10
2017-04-17T07:36:22.555Z,97.00
2017-04-17T07:37:21.713Z,97.00
2017-04-17T07:38:20.927Z,97.20
2017-04-17T07:39:20.097Z,97.10
2017-04-17T07:40:19.276Z,97.20
2017-04-17T07:41:18.428Z,97.20
2017-04-17T07:42:17.569Z,97.20
2017-04-17T07:43:16.764Z,97.20
2017-04-17T07:44:15.935Z,97.10
2017-04-17T07:45:15.104Z,97.20
2017-04-17T07:46:14.261Z,97.50
2017-04-17T07:47:13.437Z,97.50
2017-04-17T07:48:12.589Z,97.20
2017-04-17T07:49:11.744Z,97.20
2017-04-17T07:50:10.948Z,97.20
2017-04-17T07:51:10.123Z,97.30
2017-04-17T07:52:09.277Z,97.30
2017-04-17T07:53:08.709Z,97.20
2017-04-17T07:54:07.865Z,97.20
2017-04-17T07:55:07.034Z,97.20
2017-04-17T07:56:06.225Z,97.10
2017-04-17T07:57:05.388Z,97.10
2017-04-17T07:58:04.537Z,97.10
2017-04-17T07:59:03.706Z,97.10
2017-04-17T08:00:02.875Z,97.10
2017-04-17T08:01:02.035Z,97.20
2017-04-17T08:02:01.224Z,97.10
2017-04-17T08:03:00.440Z,97.10
2017-04-17T08:03:59.598Z,97.10
2017-04-17T08:04:58.764Z,96.90
2017-04-17T08:05:57.922Z,96.90
2017-04-17T08:06:57.064Z,96.90
2017-04-17T08:07:56.242Z,96.80
2017-04-17T08:08:55.448Z,96.60
2017-04-17T08:09:54.613Z,96.50
2017-04-17T08:10:53.776Z,96.50
2017-04-17T08:11:52.921Z,96.40
2017-04-17T08:12:52.076Z,96.40
2017-04-17T08:13:51.264Z,96.30
2017-04-17T08:14:50.411Z,96.20
2017-04-17T08:15:50.312Z,96.30
2017-04-17T08:16:49.568Z,96.30
2017-04-17T08:17:48.717Z,96.20
2017-04-17T08:18:47.868Z,96.10
2017-04-17T08:19:47.042Z,96.10
2017-04-17T08:20:46.202Z,96.10
2017-04-17T08:21:45.352Z,96.00
2017-04-17T08:22:44.753Z,96.00
2017-04-17T08:23:43.917Z,95.70
2017-04-17T08:24:43.824Z,96.20
2017-04-17T08:25:43.809Z,95.70
2017-04-17T08:26:43.056Z,95.60
2017-04-17T08:27:42.248Z,95.60
2017-04-17T08:28:41.432Z,95.60
2017-04-17T08:29:40.628Z,95.70
2017-04-17T08:30:39.843Z,95.50
2017-04-17T08:31:39.041Z,95.60
2017-04-17T08:32:38.225Z,95.50
2017-04-17T08:33:37.402Z,95.50
2017-04-17T08:34:36.586Z,95.30
2017-04-17T08:35:35.768Z,95.50
2017-04-17T08:36:34.944Z,95.50
2017-04-17T08:37:34.153Z,95.50
2017-04-17T08:38:33.433Z,95.50
2017-04-17T08:39:32.605Z,95.40
2017-04-17T08:40:31.776Z,95.40
2017-04-17T08:41:30.941Z,95.30
2017-04-17T08:42:30.135Z,95.30
2017-04-17T08:43:29.363Z,95.20
2017-04-17T08:44:28.532Z,95.20
2017-04-17T08:45:27.708Z,95.10
2017-04-17T08:46:27.620Z,95.20
2017-04-17T08:47:26.791Z,95.40
2017-04-17T08:48:26.708Z,94.80
2017-04-17T08:49:26.653Z,94.60
2017-04-17T08:50:25.834Z,94.30
2017-04-17T08:51:25.013Z,94.40
2017-04-17T08:52:24.185Z,94.30
2017-04-17T08:53:23.365Z,94.00
2017-04-17T08:54:23.284Z,94.00
2017-04-17T08:55:22.481Z,93.90
2017-04-17T08:56:21.656Z,93.80
2017-04-17T08:57:20.056Z,93.80
2017-04-17T08:58:19.225Z,93.70
2017-04-17T08:59:18.404Z,93.70
2017-04-17T09:00:17.613Z,93.70
2017-04-17T09:01:16.815Z,93.70
2017-04-17T09:02:15.986Z,93.50
2017-04-17T09:03:15.159Z,93.50
2017-04-17T09:04:14.332Z,93.50
2017-04-17T09:05:13.517Z,93.30
2017-04-17T09:06:12.697Z,93.30
2017-04-17T09:07:12.628Z,93.00
2017-04-17T09:08:11.801Z,92.70
2017-04-17T09:09:10.984Z,93.20
2017-04-17T09:10:10.166Z,92.70
2017-04-17T09:11:10.081Z,92.60
2017-04-17T09:12:10.001Z,92.70
2017-04-17T09:13:09.223Z,92.80
2017-04-17T09:14:08.396Z,92.70
2017-04-17T09:15:07.562Z,92.70
2017-04-17T09:16:06.729Z,92.70
2017-04-17T09:17:05.908Z,92.70
2017-04-17T09:18:05.829Z,92.80
2017-04-17T09:19:05.035Z,92.80
2017-04-17T09:20:04.219Z,92.80
2017-04-17T09:21:03.404Z,92.70
2017-04-17T09:22:02.564Z,92.80
2017-04-17T09:23:02.479Z,93.00
2017-04-17T09:24:02.395Z,92.70
2017-04-17T09:25:01.644Z,92.70
2017-04-17T09:26:00.845Z,92.70
2017-04-17T09:27:00.011Z,92.50
2017-04-17T09:27:59.184Z,92.50
2017-04-17T09:28:58.360Z,92.50
2017-04-17T09:29:57.541Z,92.30
2017-04-17T09:30:56.736Z,92.40
2017-04-17T09:31:55.922Z,92.30
2017-04-17T09:32:55.090Z,92.30
2017-04-17T09:33:54.256Z,92.40
2017-04-17T09:34:54.172Z,92.40
2017-04-17T09:35:53.344Z,92.50
2017-04-17T09:36:52.537Z,92.80
2017-04-17T09:37:51.726Z,92.80
2017-04-17T09:38:50.901Z,92.70
2017-04-17T09:39:50.119Z,92.60
2017-04-17T09:40:49.276Z,92.60
2017-04-17T09:41:48.444Z,92.80
2017-04-17T09:42:47.651Z,92.70
2017-04-17T09:43:46.823Z,92.80
2017-04-17T09:44:45.994Z,92.80
2017-04-17T09:45:45.168Z,92.90
2017-04-17T09:46:44.344Z,93.00
2017-04-17T09:47:43.526Z,93.00
2017-04-17T09:48:42.728Z,92.90
2017-04-17T09:49:41.893Z,93.00
2017-04-17T09:50:41.081Z,92.80
2017-04-17T09:51:40.244Z,92.90
2017-04-17T09:52:39.412Z,93.00
2017-04-17T09:53:38.585Z,93.00
2017-04-17T09:54:37.803Z,92.60
2017-04-17T09:55:36.985Z,92.60
2017-04-17T09:56:36.163Z,92.50
2017-04-17T09:57:35.344Z,92.30
2017-04-17T09:58:34.521Z,92.00
2017-04-17T09:59:33.693Z,92.00
2017-04-17T10:00:32.925Z,92.00
2017-04-17T10:01:32.113Z,92.10
2017-04-17T10:02:31.300Z,92.10
2017-04-17T10:03:30.463Z,92.10
2017-04-17T10:04:29.631Z,91.90
2017-04-17T10:05:28.805Z,92.20
2017-04-17T10:06:28.004Z,92.20
2017-04-17T10:07:27.173Z,92.30
2017-04-17T10:08:26.333Z,92.30
2017-04-17T10:09:25.491Z,92.30
2017-04-17T10:10:24.659Z,92.20
2017-04-17T10:11:23.836Z,92.20
2017-04-17T10:12:23.033Z,92.20
2017-04-17T10:13:22.216Z,92.20
2017-04-17T10:14:21.421Z,92.20
2017-04-17T10:15:20.600Z,92.30
2017-04-17T10:16:19.769Z,92.40
2017-04-17T10:17:18.973Z,92.30
2017-04-17T10:18:18.181Z,92.40
2017-04-17T10:19:18.102Z,92.50
2017-04-17T10:20:17.295Z,92.40
2017-04-17T10:21:16.476Z,92.20
2017-04-17T10:22:15.644Z,92.20
2017-04-17T10:23:14.841Z,91.80
2017-04-17T10:24:14.758Z,91.50
2017-04-17T10:25:13.932Z,91.10
2017-04-17T10:26:13.131Z,91.10
2017-04-17T10:27:12.325Z,91.10
2017-04-17T10:28:11.509Z,91.00
2017-04-17T10:29:10.705Z,90.70
2017-04-17T10:30:09.884Z,90.50
2017-04-17T10:31:09.089Z,90.60
2017-04-17T10:32:08.269Z,90.20
2017-04-17T10:33:07.468Z,89.80
2017-04-17T10:34:06.645Z,89.80
2017-04-17T10:35:05.868Z,89.30
2017-04-17T10:36:05.028Z,89.30
2017-04-17T10:37:04.199Z,89.10
2017-04-17T10:38:03.378Z,89.50
2017-04-17T10:39:03.384Z,89.30
2017-04-17T10:40:03.327Z,89.80
2017-04-17T10:41:02.533Z,88.90
2017-04-17T10:42:01.704Z,88.90
2017-04-17T10:43:00.872Z,88.60
2017-04-17T10:44:00.048Z,88.10
2017-04-17T10:44:59.225Z,88.30
2017-04-17T10:45:58.404Z,88.20
2017-04-17T10:46:57.613Z,87.10
2017-04-17T10:47:56.780Z,87.80
2017-04-17T10:48:56.703Z,87.10
2017-04-17T10:49:55.877Z,85.90
2017-04-17T10:50:55.084Z,85.90
2017-04-17T10:51:54.258Z,86.20
2017-04-17T10:52:53.470Z,86.10
2017-04-17T10:53:52.669Z,84.80
2017-04-17T10:54:51.839Z,84.50
2017-04-17T10:55:51.046Z,83.70
2017-04-17T10:56:50.216Z,83.50
2017-04-17T10:57:49.388Z,83.70
2017-04-17T10:58:48.599Z,83.70
2017-04-17T10:59:47.776Z,83.50
2017-04-17T11:00:46.960Z,83.20
2017-04-17T11:01:46.128Z,83.40
2017-04-17T11:02:45.289Z,83.40
2017-04-17T11:03:45.206Z,83.60
2017-04-17T11:04:44.428Z,83.80
2017-04-17T11:05:43.613Z,83.60
2017-04-17T11:06:42.778Z,83.80
2017-04-17T11:07:41.954Z,84.00
2017-04-17T11:08:41.141Z,84.70
2017-04-17T11:09:40.345Z,85.20
2017-04-17T11:10:39.550Z,83.50
2017-04-17T11:11:38.728Z,82.80
2017-04-17T11:12:37.900Z,82.50
2017-04-17T11:13:37.081Z,81.00
2017-04-17T11:14:36.261Z,81.30
2017-04-17T11:15:35.432Z,80.50
2017-04-17T11:16:34.653Z,80.30
2017-04-17T11:17:33.869Z,80.10
2017-04-17T11:18:33.040Z,79.40
2017-04-17T11:19:32.995Z,78.50
2017-04-17T11:20:32.177Z,80.00
2017-04-17T11:21:31.356Z,79.40
2017-04-17T11:22:30.560Z,80.20
2017-04-17T11:23:29.725Z,80.30
2017-04-17T11:24:28.915Z,81.30
2017-04-17T11:25:28.096Z,81.40
2017-04-17T11:26:27.321Z,81.20
2017-04-17T11:27:26.474Z,82.20
2017-04-17T11:28:25.709Z,81.90
2017-04-17T11:29:24.860Z,81.40
2017-04-17T11:30:24.012Z,82.30
2017-04-17T11:31:23.914Z,82.00
2017-04-17T11:32:23.807Z,81.80
2017-04-17T11:33:22.955Z,81.90
2017-04-17T11:34:22.148Z,81.70
2017-04-17T11:35:21.296Z,82.00
2017-04-17T11:36:21.192Z,82.10
2017-04-17T11:37:20.341Z,82.10
2017-04-17T11:38:19.499Z,81.50
2017-04-17T11:39:18.716Z,81.50
2017-04-17T11:40:17.914Z,81.70
2017-04-17T11:41:17.080Z,82.20
2017-04-17T11:42:16.235Z,82.50
2017-04-17T11:43:16.147Z,83.70
2017-04-17T11:44:15.335Z,83.60
2017-04-17T11:45:14.486Z,83.80
2017-04-17T11:46:13.879Z,84.20
2017-04-17T11:47:13.048Z,85.00
2017-04-17T11:48:12.198Z,85.40
2017-04-17T11:49:11.345Z,85.90
2017-04-17T11:50:11.260Z,86.10
2017-04-17T11:51:10.420Z,85.50
2017-04-17T11:52:09.606Z,84.60
2017-04-17T11:53:08.760Z,83.40
2017-04-17T11:54:08.673Z,84.10
2017-04-17T11:55:07.893Z,82.70
2017-04-17T11:56:07.052Z,83.60
2017-04-17T11:57:06.204Z,82.70
2017-04-17T11:58:05.431Z,81.30
2017-04-17T11:59:04.593Z,80.50
2017-04-17T12:00:03.796Z,80.70
2017-04-17T12:01:03.791Z,80.10
2017-04-17T12:02:03.709Z,79.10
2017-04-17T12:03:02.861Z,78.70
2017-04-17T12:04:02.070Z,77.50
2017-04-17T12:05:01.231Z,77.60
2017-04-17T12:06:00.393Z,76.30
2017-04-17T12:06:59.555Z,76.50
2017-04-17T12:07:58.720Z,75.00
2017-04-17T12:08:57.885Z,73.60
2017-04-17T12:09:57.074Z,74.90
2017-04-17T12:10:56.252Z,73.60
2017-04-17T12:11:55.450Z,73.90
2017-04-17T12:12:54.636Z,73.00
2017-04-17T12:13:53.792Z,72.80
2017-04-17T12:14:52.951Z,73.10
2017-04-17T12:15:52.128Z,73.60
2017-04-17T12:16:51.279Z,73.60
2017-04-17T12:17:50.437Z,73.30
2017-04-17T12:18:49.626Z,74.00
2017-04-17T12:19:48.783Z,73.30
2017-04-17T12:20:47.943Z,74.00
2017-04-17T12:21:47.140Z,72.60
2017-04-17T12:22:46.556Z,73.80
2017-04-17T12:23:45.736Z,73.10
2017-04-17T12:24:44.906Z,69.50
2017-04-17T12:25:44.132Z,69.70
2017-04-17T12:26:43.325Z,71.80
2017-04-17T12:27:42.536Z,70.30
2017-04-17T12:28:41.712Z,71.50
2017-04-17T12:29:40.902Z,71.50
2017-04-17T12:30:40.087Z,69.40
2017-04-17T12:31:39.262Z,68.90
2017-04-17T12:32:38.436Z,69.60
2017-04-17T12:33:37.645Z,69.30
2017-04-17T12:34:36.816Z,71.10
2017-04-17T12:35:36.009Z,71.00
2017-04-17T12:36:35.192Z,68.30
2017-04-17T12:37:34.385Z,70.30
2017-04-17T12:38:33.611Z,70.70
2017-04-17T12:39:32.780Z,72.00
2017-04-17T12:40:31.969Z,71.50
2017-04-17T12:41:31.153Z,73.20
2017-04-17T12:42:30.357Z,75.10
2017-04-17T12:43:29.532Z,75.20
2017-04-17T12:44:28.796Z,77.20
2017-04-17T12:45:27.965Z,77.10